createdAt,value
2018-02-16T00:00:12.389Z,8.80
2018-02-16T00:02:40.803Z,7.33
2018-02-16T00:05:08.493Z,9.60
2018-02-16T00:07:36.165Z,8.20
2018-02-16T00:10:03.809Z,8.80
2018-02-16T00:12:31.438Z,8.87
2018-02-16T00:14:59.925Z,9.83
2018-02-16T00:17:27.546Z,9.20
2018-02-16T00:19:55.242Z,7.40
2018-02-16T00:22:23.628Z,9.90
2018-02-16T00:24:51.278Z,8.47
2018-02-16T00:27:18.951Z,8.37
2018-02-16T00:29:46.731Z,7.87
2018-02-16T00:32:14.460Z,8.33
2018-02-16T00:34:42.179Z,6.10
2018-02-16T00:37:09.855Z,9.43
2018-02-16T00:39:37.562Z,7.60
2018-02-16T00:42:06.079Z,8.90
2018-02-16T00:44:33.788Z,6.40
2018-02-16T00:47:01.534Z,8.40
2018-02-16T00:49:29.362Z,6.97
2018-02-16T00:51:56.966Z,7.00
2018-02-16T00:54:25.415Z,9.60
2018-02-16T00:56:53.247Z,8.33
2018-02-16T00:59:21.770Z,8.80
2018-02-16T01:01:49.428Z,9.47
2018-02-16T01:04:17.084Z,8.13
2018-02-16T01:06:44.751Z,8.63
2018-02-16T01:09:12.500Z,8.13
2018-02-16T01:11:40.268Z,9.47
2018-02-16T01:14:07.906Z,9.10
2018-02-16T01:16:36.471Z,9.30
2018-02-16T01:19:04.108Z,8.67
2018-02-16T01:21:31.961Z,9.80
2018-02-16T01:24:00.187Z,9.20
2018-02-16T01:26:28.594Z,9.27
2018-02-16T01:28:56.426Z,9.40
2018-02-16T01:31:24.178Z,11.20
2018-02-16T01:33:51.949Z,8.40
2018-02-16T01:36:19.640Z,7.77
2018-02-16T01:38:48.047Z,9.20
2018-02-16T01:41:15.699Z,8.70
2018-02-16T01:43:43.431Z,9.60
2018-02-16T01:46:12.658Z,8.20
2018-02-16T01:48:40.259Z,9.73
2018-02-16T01:51:08.020Z,9.73
2018-02-16T01:53:35.717Z,10.13
2018-02-16T01:56:03.532Z,9.43
2018-02-16T01:58:31.256Z,10.77
2018-02-16T02:00:58.988Z,9.10
2018-02-16T02:03:26.697Z,10.43
2018-02-16T02:05:55.185Z,10.00
2018-02-16T02:08:23.685Z,9.73
2018-02-16T02:10:51.644Z,10.57
2018-02-16T02:13:19.321Z,8.87
2018-02-16T02:15:47.019Z,10.30
2018-02-16T02:18:14.705Z,9.67
2018-02-16T02:20:42.353Z,10.40
2018-02-16T02:23:10.046Z,9.37
2018-02-16T02:25:37.696Z,10.00
2018-02-16T02:28:05.365Z,10.40
2018-02-16T02:30:33.875Z,11.10
2018-02-16T02:33:01.622Z,10.40
2018-02-16T02:35:29.315Z,11.10
2018-02-16T02:37:56.965Z,10.20
2018-02-16T02:40:24.774Z,11.67
2018-02-16T02:42:52.704Z,11.10
2018-02-16T02:45:20.376Z,10.70
2018-02-16T02:47:48.000Z,10.60
2018-02-16T02:50:15.759Z,10.90
2018-02-16T02:52:44.145Z,11.57
2018-02-16T02:55:11.860Z,7.97
2018-02-16T02:57:39.556Z,12.40
2018-02-16T03:00:07.332Z,11.53
2018-02-16T03:02:35.075Z,11.87
2018-02-16T03:05:02.783Z,10.07
2018-02-16T03:07:30.476Z,11.97
2018-02-16T03:09:58.166Z,10.43
2018-02-16T03:12:25.947Z,13.10
2018-02-16T03:14:53.638Z,10.27
2018-02-16T03:17:21.325Z,11.50
2018-02-16T03:19:49.017Z,10.43
2018-02-16T03:22:16.638Z,11.17
2018-02-16T03:24:44.332Z,10.77
2018-02-16T03:27:11.916Z,11.60
2018-02-16T03:29:39.637Z,11.47
2018-02-16T03:32:07.374Z,11.40
2018-02-16T03:34:35.914Z,10.63
2018-02-16T03:37:03.600Z,10.97
2018-02-16T03:39:31.460Z,12.60
2018-02-16T03:41:59.499Z,12.13
2018-02-16T03:44:27.148Z,11.25
2018-02-16T03:46:55.010Z,10.57
2018-02-16T03:49:22.727Z,11.33
2018-02-16T03:51:50.678Z,10.50
2018-02-16T03:54:20.078Z,11.30
2018-02-16T03:56:47.724Z,11.20
2018-02-16T03:59:15.458Z,10.27
2018-02-16T04:01:43.167Z,11.40
2018-02-16T04:04:10.920Z,11.17
2018-02-16T04:06:38.633Z,10.57
2018-02-16T04:09:07.049Z,10.20
2018-02-16T04:11:34.751Z,9.70
2018-02-16T04:14:02.350Z,11.90
2018-02-16T04:16:30.735Z,10.17
2018-02-16T04:18:58.433Z,11.30
2018-02-16T04:21:26.820Z,11.63
2018-02-16T04:23:54.510Z,10.53
2018-02-16T04:26:22.187Z,9.80
2018-02-16T04:28:49.965Z,11.00
2018-02-16T04:31:18.452Z,9.37
2018-02-16T04:33:46.952Z,10.67
2018-02-16T04:36:14.700Z,10.77
2018-02-16T04:38:42.533Z,10.83
2018-02-16T04:41:10.305Z,10.90
2018-02-16T04:43:37.817Z,8.98
2018-02-16T04:46:05.282Z,11.57
2018-02-16T04:48:32.926Z,10.80
2018-02-16T04:51:00.685Z,10.33
2018-02-16T04:53:28.406Z,10.40
2018-02-16T04:55:56.188Z,11.27
2018-02-16T04:58:23.815Z,10.37
2018-02-16T05:00:51.604Z,10.43
2018-02-16T05:03:19.273Z,11.10
2018-02-16T05:05:47.005Z,10.60
2018-02-16T05:08:14.720Z,11.83
2018-02-16T05:10:42.405Z,11.00
2018-02-16T05:13:10.262Z,10.10
2018-02-16T05:15:37.933Z,9.90
2018-02-16T05:18:05.680Z,10.93
2018-02-16T05:20:34.118Z,11.00
2018-02-16T05:23:01.845Z,10.10
2018-02-16T05:25:29.622Z,11.20
2018-02-16T05:27:57.475Z,12.33
2018-02-16T05:30:25.177Z,11.63
2018-02-16T05:32:52.868Z,10.57
2018-02-16T05:35:21.314Z,11.47
2018-02-16T05:37:49.039Z,12.17
2018-02-16T05:40:16.741Z,11.90
2018-02-16T05:42:44.565Z,11.90
2018-02-16T05:45:12.295Z,11.13
2018-02-16T05:47:39.937Z,10.20
2018-02-16T05:50:07.561Z,11.10
2018-02-16T05:52:35.330Z,10.97
2018-02-16T05:55:03.082Z,11.37
2018-02-16T05:57:30.823Z,12.47
2018-02-16T05:59:59.484Z,12.20
2018-02-16T06:02:27.134Z,12.30
2018-02-16T06:04:54.810Z,12.13
2018-02-16T06:07:22.553Z,12.80
2018-02-16T06:09:50.467Z,11.50
2018-02-16T06:12:18.222Z,11.73
2018-02-16T06:14:45.911Z,11.10
2018-02-16T06:17:14.366Z,11.17
2018-02-16T06:19:42.029Z,11.90
2018-02-16T06:22:09.729Z,11.53
2018-02-16T06:24:37.577Z,11.80
2018-02-16T06:27:06.053Z,13.40
2018-02-16T06:29:34.735Z,9.73
2018-02-16T06:32:03.247Z,11.47
2018-02-16T06:34:30.987Z,11.90
2018-02-16T06:36:58.749Z,8.60
2018-02-16T06:39:27.240Z,11.27
2018-02-16T06:41:55.716Z,11.37
2018-02-16T06:44:24.385Z,11.23
2018-02-16T06:46:52.116Z,11.40
2018-02-16T06:49:19.913Z,12.13
2018-02-16T06:51:47.617Z,12.33
2018-02-16T06:54:15.431Z,13.20
2018-02-16T06:56:43.015Z,10.83
2018-02-16T06:59:10.706Z,13.00
2018-02-16T07:01:39.056Z,11.43
2018-02-16T07:04:06.844Z,12.30
2018-02-16T07:06:35.303Z,11.80
2018-02-16T07:09:03.009Z,9.77
2018-02-16T07:11:30.797Z,11.83
2018-02-16T07:13:58.583Z,10.83
2018-02-16T07:16:26.286Z,11.37
2018-02-16T07:18:54.012Z,9.63
2018-02-16T07:21:21.643Z,8.57
2018-02-16T07:23:49.488Z,11.57
2018-02-16T07:26:17.177Z,8.77
2018-02-16T07:28:44.933Z,11.03
2018-02-16T07:31:12.674Z,11.17
2018-02-16T07:33:41.103Z,11.30
2018-02-16T07:36:08.841Z,11.30
2018-02-16T07:38:36.610Z,11.33
2018-02-16T07:41:04.310Z,11.50
2018-02-16T07:43:32.006Z,7.20
2018-02-16T07:45:59.689Z,11.10
2018-02-16T07:48:27.404Z,11.00
2018-02-16T07:50:55.224Z,10.90
2018-02-16T07:53:22.870Z,10.87
2018-02-16T07:55:50.564Z,11.27
2018-02-16T07:58:18.387Z,9.87
2018-02-16T08:00:46.114Z,9.73
2018-02-16T08:03:13.941Z,9.23
2018-02-16T08:05:41.700Z,8.57
2018-02-16T08:08:10.470Z,10.20
2018-02-16T08:10:38.132Z,7.30
2018-02-16T08:13:05.911Z,11.23
2018-02-16T08:15:34.449Z,9.43
2018-02-16T08:18:02.043Z,10.63
2018-02-16T08:20:29.738Z,4.33
2018-02-16T08:22:57.321Z,9.33
2018-02-16T08:25:25.059Z,8.63
2018-02-16T08:27:52.710Z,8.83
2018-02-16T08:30:21.164Z,7.23
2018-02-16T08:32:49.575Z,9.87
2018-02-16T08:35:17.990Z,10.87
2018-02-16T08:37:45.646Z,9.60
2018-02-16T08:40:13.573Z,8.97
2018-02-16T08:42:41.327Z,8.60
2018-02-16T08:45:08.946Z,8.00
2018-02-16T08:47:36.714Z,8.00
2018-02-16T08:50:04.284Z,8.40
2018-02-16T08:52:31.932Z,8.30
2018-02-16T08:54:59.604Z,6.53
2018-02-16T08:57:27.290Z,8.07
2018-02-16T08:59:54.891Z,8.23
2018-02-16T09:02:22.663Z,8.53
2018-02-16T09:04:50.241Z,6.50
2018-02-16T09:07:17.962Z,8.40
2018-02-16T09:09:45.656Z,7.57
2018-02-16T09:12:13.423Z,8.53
2018-02-16T09:14:41.091Z,7.40
2018-02-16T09:17:08.777Z,8.60
2018-02-16T09:19:36.532Z,8.03
2018-02-16T09:22:04.186Z,8.07
2018-02-16T09:24:31.942Z,7.93
2018-02-16T09:26:59.692Z,7.43
2018-02-16T09:29:28.133Z,6.50
2018-02-16T09:31:55.887Z,4.00
2018-02-16T09:34:23.675Z,5.10
2018-02-16T09:36:51.327Z,5.70
2018-02-16T09:39:30.260Z,5.20
2018-02-16T09:41:57.928Z,6.20
2018-02-16T09:44:25.672Z,5.77
2018-02-16T09:46:53.504Z,5.30
2018-02-16T09:49:21.236Z,4.27
2018-02-16T09:51:48.975Z,3.40
2018-02-16T09:54:16.856Z,5.83
2018-02-16T09:56:44.485Z,3.27
2018-02-16T09:59:12.168Z,5.90
2018-02-16T10:01:40.036Z,6.23
2018-02-16T10:04:07.789Z,4.03
2018-02-16T10:06:35.560Z,3.43
2018-02-16T10:09:03.385Z,3.40
2018-02-16T10:11:31.114Z,2.60
2018-02-16T10:13:58.778Z,3.73
2018-02-16T10:16:27.044Z,2.60
2018-02-16T10:18:54.788Z,3.67
2018-02-16T10:21:22.448Z,1.97
2018-02-16T10:23:50.148Z,3.30
2018-02-16T10:26:18.102Z,3.67
2018-02-16T10:28:45.973Z,2.17
2018-02-16T10:31:13.789Z,2.40
2018-02-16T10:33:41.495Z,3.10
2018-02-16T10:36:09.960Z,2.43
2018-02-16T10:38:38.386Z,2.33
2018-02-16T10:41:06.043Z,3.00
2018-02-16T10:43:34.551Z,2.80
2018-02-16T10:46:02.075Z,2.80
2018-02-16T10:48:29.819Z,2.73
2018-02-16T10:50:57.479Z,1.73
2018-02-16T10:53:25.517Z,1.93
2018-02-16T10:55:53.279Z,1.60
2018-02-16T10:58:20.901Z,1.77
2018-02-16T11:00:54.286Z,2.10
2018-02-16T11:03:27.479Z,2.10
2018-02-16T11:05:55.531Z,2.57
2018-02-16T11:08:28.862Z,3.67
2018-02-16T11:10:56.560Z,2.00
2018-02-16T11:13:24.209Z,1.70
2018-02-16T11:15:52.607Z,2.93
2018-02-16T11:18:20.320Z,1.83
2018-02-16T11:20:48.709Z,3.57
2018-02-16T11:23:16.424Z,1.87
2018-02-16T11:25:44.060Z,2.40
2018-02-16T11:28:11.654Z,1.23
2018-02-16T11:30:39.393Z,1.80
2018-02-16T11:33:07.256Z,2.07
2018-02-16T11:35:36.035Z,1.97
2018-02-16T11:38:04.619Z,1.80
2018-02-16T11:40:33.147Z,2.60
2018-02-16T11:43:01.006Z,1.60
2018-02-16T11:45:28.983Z,1.97
2018-02-16T11:47:56.803Z,2.10
2018-02-16T11:50:24.510Z,1.60
2018-02-16T11:52:52.184Z,1.13
2018-02-16T11:55:19.851Z,1.63
2018-02-16T11:57:47.584Z,1.40
2018-02-16T12:00:15.356Z,1.93
2018-02-16T12:02:43.050Z,1.37
2018-02-16T12:05:10.794Z,1.67
2018-02-16T12:07:38.630Z,2.10
2018-02-16T12:10:06.439Z,1.90
2018-02-16T12:12:34.114Z,1.20
2018-02-16T12:15:01.843Z,1.57
2018-02-16T12:17:29.590Z,1.60
2018-02-16T12:19:57.256Z,1.80
2018-02-16T12:22:24.926Z,1.90
2018-02-16T12:24:52.755Z,2.23
2018-02-16T12:27:20.537Z,1.40
2018-02-16T12:29:48.942Z,1.83
2018-02-16T12:32:16.552Z,1.90
2018-02-16T12:34:44.235Z,2.30
2018-02-16T12:37:12.775Z,1.77
2018-02-16T12:39:40.528Z,1.93
2018-02-16T12:42:08.197Z,1.37
2018-02-16T12:44:36.143Z,2.30
2018-02-16T12:47:03.876Z,2.67
2018-02-16T12:49:31.721Z,2.70
2018-02-16T12:51:59.455Z,2.07
2018-02-16T12:54:27.152Z,2.90
2018-02-16T12:56:54.816Z,2.27
2018-02-16T12:59:22.528Z,2.20
2018-02-16T13:01:50.192Z,2.50
2018-02-16T13:04:17.897Z,3.30
2018-02-16T13:06:45.668Z,2.40
2018-02-16T13:09:13.279Z,2.17
2018-02-16T13:11:41.272Z,2.13
2018-02-16T13:14:09.221Z,1.80
2018-02-16T13:16:36.904Z,1.80
2018-02-16T13:19:04.599Z,2.47
2018-02-16T13:21:32.181Z,3.10
2018-02-16T13:24:00.594Z,1.93
2018-02-16T13:26:28.363Z,2.43
2018-02-16T13:28:56.064Z,2.00
2018-02-16T13:31:23.676Z,2.20
2018-02-16T13:33:51.400Z,2.33
2018-02-16T13:36:19.117Z,3.10
2018-02-16T13:38:46.790Z,2.60
2018-02-16T13:41:14.460Z,1.33
2018-02-16T13:43:42.062Z,3.20
2018-02-16T13:46:10.148Z,4.67
2018-02-16T13:48:38.696Z,2.93
2018-02-16T13:51:06.328Z,2.00
2018-02-16T13:53:33.991Z,3.00
2018-02-16T13:56:01.611Z,2.13
2018-02-16T13:58:30.047Z,3.63
2018-02-16T14:00:57.768Z,2.93
2018-02-16T14:03:26.188Z,3.43
2018-02-16T14:05:53.929Z,3.03
2018-02-16T14:08:21.722Z,3.17
2018-02-16T14:10:49.543Z,2.50
2018-02-16T14:13:17.172Z,3.30
2018-02-16T14:15:44.863Z,1.90
2018-02-16T14:18:12.579Z,1.90
2018-02-16T14:20:40.272Z,3.00
2018-02-16T14:23:08.167Z,2.70
2018-02-16T14:25:36.956Z,3.57
2018-02-16T14:28:04.859Z,2.60
2018-02-16T14:30:32.611Z,3.17
2018-02-16T14:33:00.291Z,3.53
2018-02-16T14:35:27.978Z,3.17
2018-02-16T14:37:55.705Z,4.20
2018-02-16T14:40:23.489Z,2.60
2018-02-16T14:42:51.112Z,2.90
2018-02-16T14:45:19.633Z,2.43
2018-02-16T14:47:47.932Z,3.10
2018-02-16T14:50:16.022Z,2.87
2018-02-16T14:52:44.547Z,2.83
2018-02-16T14:55:12.312Z,2.93
2018-02-16T14:57:39.998Z,3.80
2018-02-16T15:00:07.681Z,3.43
2018-02-16T15:02:35.427Z,2.90
2018-02-16T15:05:03.240Z,4.07
2018-02-16T15:07:30.853Z,2.73
2018-02-16T15:09:58.458Z,2.50
2018-02-16T15:12:27.207Z,2.80
2018-02-16T15:14:54.878Z,3.97
2018-02-16T15:17:22.565Z,2.23
2018-02-16T15:19:50.393Z,3.30
2018-02-16T15:22:18.046Z,3.17
2018-02-16T15:24:45.695Z,2.30
2018-02-16T15:27:13.515Z,3.57
2018-02-16T15:29:41.233Z,3.63
2018-02-16T15:32:08.807Z,3.53
2018-02-16T15:34:36.674Z,3.50
2018-02-16T15:37:04.440Z,4.27
2018-02-16T15:39:32.142Z,3.80
2018-02-16T15:41:59.772Z,3.20
2018-02-16T15:44:27.532Z,2.10
2018-02-16T15:46:55.288Z,3.80
2018-02-16T15:49:22.985Z,2.47
2018-02-16T15:51:50.680Z,2.63
2018-02-16T15:54:18.419Z,3.47
2018-02-16T15:56:47.862Z,4.17
2018-02-16T15:59:15.660Z,2.93
2018-02-16T16:01:43.608Z,3.83
2018-02-16T16:04:11.242Z,4.37
2018-02-16T16:06:39.192Z,3.83
2018-02-16T16:09:07.573Z,5.27
2018-02-16T16:11:35.250Z,4.67
2018-02-16T16:14:02.957Z,5.13
2018-02-16T16:16:30.653Z,5.90
2018-02-16T16:18:58.368Z,6.57
2018-02-16T16:21:26.084Z,21.20
2018-02-16T16:23:53.794Z,17.37
2018-02-16T16:26:21.475Z,46.70
2018-02-16T16:28:49.323Z,7.90
2018-02-16T16:31:17.032Z,6.30
2018-02-16T16:33:44.609Z,5.50
2018-02-16T16:36:12.452Z,4.70
2018-02-16T16:38:40.045Z,6.73
2018-02-16T16:41:08.869Z,5.03
2018-02-16T16:43:36.568Z,4.07
2018-02-16T16:46:05.136Z,4.30
2018-02-16T16:48:33.001Z,4.53
2018-02-16T16:51:00.766Z,4.70
2018-02-16T16:53:28.483Z,4.07
2018-02-16T16:55:57.277Z,3.40
2018-02-16T16:58:25.812Z,2.97
2018-02-16T17:00:53.477Z,4.03
2018-02-16T17:03:21.195Z,5.10
2018-02-16T17:05:48.933Z,6.03
2018-02-16T17:08:16.536Z,7.10
2018-02-16T17:10:44.250Z,11.50
2018-02-16T17:13:12.200Z,18.27
2018-02-16T17:15:39.857Z,15.23
2018-02-16T17:18:07.621Z,21.80
2018-02-16T17:20:36.486Z,22.73
2018-02-16T17:23:04.176Z,17.20
2018-02-16T17:25:31.876Z,15.73
2018-02-16T17:27:59.609Z,13.43
2018-02-16T17:30:27.234Z,12.30
2018-02-16T17:32:54.802Z,12.57
2018-02-16T17:35:22.461Z,10.23
2018-02-16T17:37:50.077Z,10.40
2018-02-16T17:40:17.831Z,8.90
2018-02-16T17:42:45.448Z,9.57
2018-02-16T17:45:13.237Z,8.20
2018-02-16T17:47:40.945Z,6.77
2018-02-16T17:50:08.612Z,5.50
2018-02-16T17:52:36.361Z,5.50
2018-02-16T17:55:04.066Z,5.67
2018-02-16T17:57:31.691Z,5.27
2018-02-16T17:59:59.365Z,55.23
2018-02-16T18:02:27.792Z,28.57
2018-02-16T18:04:55.434Z,35.77
2018-02-16T18:07:23.099Z,45.77
2018-02-16T18:09:50.748Z,4.67
2018-02-16T18:12:19.312Z,3.80
2018-02-16T18:14:47.779Z,3.73
2018-02-16T18:17:15.522Z,3.73
2018-02-16T18:19:43.412Z,3.67
2018-02-16T18:22:11.136Z,3.80
2018-02-16T18:24:38.927Z,3.73
2018-02-16T18:27:06.528Z,3.70
2018-02-16T18:29:35.253Z,2.93
2018-02-16T18:32:03.502Z,4.03
2018-02-16T18:34:32.348Z,6.13
2018-02-16T18:37:00.004Z,6.27
2018-02-16T18:39:28.019Z,10.33
2018-02-16T18:41:55.844Z,6.80
2018-02-16T18:44:23.779Z,6.17
2018-02-16T18:46:51.650Z,5.17
2018-02-16T18:49:19.525Z,4.67
2018-02-16T18:51:47.681Z,4.20
2018-02-16T18:54:15.494Z,4.10
2018-02-16T18:56:43.246Z,2.90
2018-02-16T18:59:10.844Z,3.30
2018-02-16T19:01:38.760Z,2.87
2018-02-16T19:04:06.612Z,2.40
2018-02-16T19:06:34.405Z,3.07
2018-02-16T19:09:02.624Z,3.43
2018-02-16T19:11:31.357Z,3.43
2018-02-16T19:13:59.124Z,3.80
2018-02-16T19:16:26.949Z,3.40
2018-02-16T19:18:54.746Z,3.13
2018-02-16T19:21:22.447Z,3.70
2018-02-16T19:23:50.531Z,3.77
2018-02-16T19:26:18.259Z,2.60
2018-02-16T19:28:45.943Z,2.67
2018-02-16T19:31:13.770Z,2.23
2018-02-16T19:33:42.078Z,3.00
2018-02-16T19:36:10.472Z,2.60
2018-02-16T19:38:38.326Z,2.13
2018-02-16T19:41:06.289Z,3.67
2018-02-16T19:43:34.252Z,3.47
2018-02-16T19:46:02.109Z,4.47
2018-02-16T19:48:29.858Z,3.33
2018-02-16T19:50:57.800Z,5.77
2018-02-16T19:53:25.777Z,7.80
2018-02-16T19:55:53.924Z,6.60
2018-02-16T19:58:22.441Z,5.83
2018-02-16T20:00:51.482Z,7.20
2018-02-16T20:03:19.634Z,7.00
2018-02-16T20:05:47.399Z,6.53
2018-02-16T20:08:15.183Z,6.40
2018-02-16T20:10:42.772Z,5.63
2018-02-16T20:13:10.593Z,4.50
2018-02-16T20:15:38.558Z,4.20
2018-02-16T20:18:06.341Z,3.70
2018-02-16T20:20:34.461Z,3.60
2018-02-16T20:23:02.232Z,3.83
2018-02-16T20:25:30.331Z,4.20
2018-02-16T20:27:59.698Z,4.40
2018-02-16T20:30:28.677Z,3.93
2018-02-16T20:32:56.475Z,4.47
2018-02-16T20:35:24.346Z,3.80
2018-02-16T20:37:52.676Z,4.30
2018-02-16T20:40:20.523Z,7.60
2018-02-16T20:42:48.362Z,8.33
2018-02-16T20:45:16.162Z,8.20
2018-02-16T20:47:44.150Z,10.70
2018-02-16T20:50:12.021Z,10.10
2018-02-16T20:52:40.147Z,10.13
2018-02-16T20:55:08.049Z,9.70
2018-02-16T20:57:35.952Z,10.37
2018-02-16T21:00:04.469Z,9.23
2018-02-16T21:02:32.399Z,9.90
2018-02-16T21:05:00.052Z,10.10
2018-02-16T21:07:27.903Z,9.93
2018-02-16T21:09:55.662Z,8.83
2018-02-16T21:12:23.293Z,7.07
2018-02-16T21:14:51.776Z,5.73
2018-02-16T21:17:19.492Z,4.67
2018-02-16T21:19:47.125Z,3.93
2018-02-16T21:22:14.916Z,6.00
2018-02-16T21:24:42.586Z,4.70
2018-02-16T21:27:10.338Z,4.13
2018-02-16T21:29:38.023Z,4.20
2018-02-16T21:32:05.767Z,3.50
2018-02-16T21:34:33.506Z,3.40
2018-02-16T21:37:01.176Z,2.80
2018-02-16T21:39:28.920Z,3.40
2018-02-16T21:41:56.502Z,4.07
2018-02-16T21:44:24.263Z,4.10
2018-02-16T21:46:52.138Z,4.70
2018-02-16T21:49:19.795Z,5.60
2018-02-16T21:51:47.489Z,5.20
2018-02-16T21:54:15.110Z,5.60
2018-02-16T21:56:42.772Z,6.13
2018-02-16T21:59:10.462Z,6.80
2018-02-16T22:01:38.130Z,6.53
2018-02-16T22:04:05.859Z,6.70
2018-02-16T22:06:33.592Z,6.43
2018-02-16T22:09:01.208Z,8.90
2018-02-16T22:11:28.970Z,7.73
2018-02-16T22:13:56.798Z,6.73
2018-02-16T22:16:24.465Z,6.33
2018-02-16T22:18:52.194Z,7.80
2018-02-16T22:21:19.823Z,7.13
2018-02-16T22:23:47.521Z,8.00
2018-02-16T22:26:15.299Z,9.30
2018-02-16T22:28:43.116Z,7.83
2018-02-16T22:31:10.872Z,6.50
2018-02-16T22:33:38.539Z,7.40
2018-02-16T22:36:06.195Z,8.00
2018-02-16T22:38:33.919Z,15.20
2018-02-16T22:41:01.565Z,11.83
2018-02-16T22:43:29.270Z,8.60
2018-02-16T22:45:57.813Z,6.60
2018-02-16T22:48:25.532Z,7.70
2018-02-16T22:50:53.325Z,6.80
2018-02-16T22:53:20.954Z,6.10
2018-02-16T22:55:48.610Z,6.30
2018-02-16T22:58:17.115Z,6.57
2018-02-16T23:00:44.804Z,7.07
2018-02-16T23:03:12.495Z,7.53
2018-02-16T23:05:40.269Z,7.93
2018-02-16T23:08:08.757Z,7.10
2018-02-16T23:10:36.431Z,7.80
2018-02-16T23:13:04.054Z,7.80
2018-02-16T23:15:31.821Z,6.77
2018-02-16T23:17:59.473Z,6.40
2018-02-16T23:20:27.271Z,5.70
2018-02-16T23:25:28.858Z,6.30
2018-02-16T23:27:56.584Z,6.20
2018-02-16T23:30:24.227Z,6.90
2018-02-16T23:32:51.832Z,6.60
2018-02-16T23:35:20.240Z,6.20
2018-02-16T23:37:47.909Z,5.50
2018-02-16T23:40:15.613Z,6.20
2018-02-16T23:42:43.279Z,6.57
2018-02-16T23:45:11.013Z,5.57
2018-02-16T23:47:38.745Z,5.47
2018-02-16T23:50:06.332Z,6.50
2018-02-16T23:52:33.964Z,4.57
2018-02-16T23:55:01.655Z,4.93
2018-02-16T23:57:29.423Z,4.57
2018-02-16T23:59:57.116Z,3.90
